Time;durP1;ratioP1;P1;durP2;ratioP2;P2;SDS_P1;SDS_P2;PMS_P1;PMS_P2;Temp;Humidity;BMP_temperature;BMP_pressure;BME280_temperature;BME280_humidity;BME280_pressure;Samples;Min_cycle;Max_cycle;Signal;HPM_P1;HPM_P2
2023/09/29 03:31:19;;;;;;;3.03;2.77;;;13.50;99.90;;;;;;5744096;22;20486;-95
2023/09/29 03:33:46;;;;;;;3.10;2.80;;;13.40;99.90;;;;;;4999123;28;20455;-94
2023/09/29 03:36:14;;;;;;;2.43;2.17;;;13.40;99.90;;;;;;5009905;28;20478;-95
2023/09/29 03:38:42;;;;;;;3.77;2.50;;;13.40;99.90;;;;;;5007120;28;20443;-95
2023/09/29 03:41:10;;;;;;;3.17;2.77;;;13.40;99.90;;;;;;5008198;28;20473;-95
2023/09/29 03:43:38;;;;;;;3.50;2.63;;;13.40;99.90;;;;;;5009233;28;20517;-95
2023/09/29 03:46:06;;;;;;;3.30;3.00;;;13.30;99.90;;;;;;5006341;28;20505;-95
2023/09/29 03:48:36;;;;;;;3.97;2.80;;;13.30;99.90;;;;;;4990387;28;20451;-95
2023/09/29 03:51:03;;;;;;;6.13;3.13;;;13.30;99.90;;;;;;5005507;28;20479;-95
2023/09/29 03:53:30;;;;;;;3.40;2.60;;;13.20;99.90;;;;;;5001785;28;20479;-94
2023/09/29 03:55:57;;;;;;;4.20;2.57;;;13.20;99.90;;;;;;5004568;28;20462;-95
2023/09/29 03:58:24;;;;;;;3.23;2.80;;;13.20;99.90;;;;;;5012841;28;20474;-96
2023/09/29 04:00:51;;;;;;;3.27;2.23;;;13.10;99.90;;;;;;5021633;22;20504;-65
2023/09/29 04:03:18;;;;;;;2.70;2.50;;;13.10;99.90;;;;;;4988404;28;20566;-65
2023/09/29 04:05:46;;;;;;;4.07;3.00;;;13.10;99.90;;;;;;4988559;28;20492;-65
2023/09/29 04:08:12;;;;;;;6.17;2.60;;;13.10;99.90;;;;;;4986253;28;20466;-65
2023/09/29 04:10:39;;;;;;;3.27;2.63;;;13.00;99.90;;;;;;4988352;28;20482;-65
2023/09/29 04:13:06;;;;;;;2.87;2.57;;;13.00;99.90;;;;;;4985268;28;20467;-65
2023/09/29 04:15:34;;;;;;;3.83;3.00;;;13.00;99.90;;;;;;4984638;28;20951;-65
2023/09/29 04:18:00;;;;;;;3.70;3.00;;;13.00;99.90;;;;;;4985262;28;20465;-65
2023/09/29 04:20:27;;;;;;;3.80;2.93;;;13.00;99.90;;;;;;4988329;28;20465;-65
2023/09/29 04:22:55;;;;;;;4.37;2.90;;;13.00;99.90;;;;;;4986288;28;20490;-65
2023/09/29 04:25:22;;;;;;;3.20;2.20;;;13.00;99.90;;;;;;4987019;28;20812;-65
2023/09/29 04:27:50;;;;;;;2.90;2.43;;;13.00;99.90;;;;;;4987430;28;20465;-65
2023/09/29 04:30:16;;;;;;;2.90;2.60;;;13.00;99.90;;;;;;4987006;28;20467;-65
2023/09/29 04:32:43;;;;;;;2.97;2.70;;;13.00;99.90;;;;;;4987918;28;20838;-65
2023/09/29 04:35:10;;;;;;;3.40;3.10;;;13.00;99.90;;;;;;4985290;28;20463;-65
2023/09/29 04:37:36;;;;;;;3.20;3.00;;;13.00;99.90;;;;;;4989234;28;20557;-64
2023/09/29 04:40:05;;;;;;;4.43;2.70;;;13.10;99.90;;;;;;5001703;28;20462;-64
2023/09/29 04:42:33;;;;;;;2.90;2.60;;;13.10;99.90;;;;;;4985276;28;20486;-65
2023/09/29 04:45:00;;;;;;;3.10;2.80;;;13.10;99.90;;;;;;4985631;28;20455;-65
2023/09/29 04:47:27;;;;;;;3.13;2.73;;;13.10;99.90;;;;;;4987896;28;20466;-65
2023/09/29 04:49:54;;;;;;;4.30;3.50;;;13.10;99.90;;;;;;4985054;28;20454;-65
2023/09/29 04:52:21;;;;;;;3.00;2.67;;;13.20;99.90;;;;;;4986116;28;20474;-65
2023/09/29 04:54:48;;;;;;;3.70;2.60;;;13.20;99.90;;;;;;4985642;28;20541;-66
2023/09/29 04:57:16;;;;;;;5.63;3.47;;;13.20;99.90;;;;;;4985349;28;20477;-66
2023/09/29 04:59:43;;;;;;;3.87;3.33;;;13.30;99.90;;;;;;4987085;28;20517;-65
2023/09/29 05:02:10;;;;;;;3.30;2.67;;;13.30;99.90;;;;;;4984761;28;20479;-65
2023/09/29 05:04:36;;;;;;;2.57;2.37;;;13.30;99.90;;;;;;4987142;28;20858;-65
2023/09/29 05:07:03;;;;;;;3.50;2.77;;;13.30;99.90;;;;;;4988541;28;20475;-65
2023/09/29 05:09:30;;;;;;;3.50;2.97;;;13.40;99.90;;;;;;4985906;28;20541;-65
2023/09/29 05:11:57;;;;;;;3.40;2.73;;;13.40;99.90;;;;;;4985010;28;20290;-65
2023/09/29 05:14:25;;;;;;;5.20;2.87;;;13.40;99.90;;;;;;4985725;28;20508;-66
2023/09/29 05:16:53;;;;;;;3.43;2.87;;;13.40;99.90;;;;;;4985759;28;20462;-66
2023/09/29 05:19:20;;;;;;;4.10;2.77;;;13.40;99.90;;;;;;4986048;28;20522;-65
2023/09/29 05:21:46;;;;;;;4.17;3.17;;;13.40;99.90;;;;;;4986949;28;20486;-64
2023/09/29 05:24:13;;;;;;;3.17;2.87;;;13.50;99.90;;;;;;4990139;28;20490;-65
2023/09/29 05:26:40;;;;;;;4.80;3.07;;;13.40;99.90;;;;;;4987588;28;20849;-64
2023/09/29 05:29:07;;;;;;;4.50;3.30;;;13.50;99.90;;;;;;4983846;28;20474;-64
2023/09/29 05:31:35;;;;;;;3.53;2.93;;;13.50;99.90;;;;;;4987454;28;20482;-65
2023/09/29 05:34:01;;;;;;;5.57;2.97;;;13.50;99.90;;;;;;4984294;28;20470;-65
2023/09/29 05:36:29;;;;;;;3.10;2.80;;;13.60;99.90;;;;;;4986918;28;20466;-67
2023/09/29 05:38:56;;;;;;;3.37;3.00;;;13.70;99.90;;;;;;4985560;28;20501;-65
2023/09/29 05:41:23;;;;;;;3.90;3.03;;;13.70;99.90;;;;;;4986275;28;20487;-64
2023/09/29 05:43:50;;;;;;;5.07;3.10;;;13.90;99.90;;;;;;4986383;28;20514;-66
2023/09/29 05:46:16;;;;;;;5.07;3.33;;;14.00;99.90;;;;;;4985180;28;20463;-68
2023/09/29 05:48:44;;;;;;;4.97;3.17;;;14.10;99.90;;;;;;4987658;28;20459;-70
2023/09/29 05:51:11;;;;;;;4.87;3.00;;;14.20;99.90;;;;;;4995666;28;20483;-67
2023/09/29 05:53:38;;;;;;;4.87;3.70;;;14.40;99.90;;;;;;4987685;28;20477;-68
2023/09/29 05:56:08;;;;;;;3.70;3.40;;;14.50;99.90;;;;;;4984410;28;20947;-68
2023/09/29 05:58:35;;;;;;;4.10;3.30;;;14.60;99.90;;;;;;4982738;28;20508;-67
2023/09/29 06:01:09;;;;;;;2.90;2.60;;;14.70;99.90;;;;;;4982421;28;20479;-67
2023/09/29 06:03:36;;;;;;;4.30;3.90;;;14.80;99.90;;;;;;4982876;28;20511;-68
2023/09/29 06:06:04;;;;;;;4.37;2.90;;;14.90;99.90;;;;;;4985029;28;20463;-68
2023/09/29 06:08:31;;;;;;;5.30;3.33;;;15.00;99.90;;;;;;4987705;28;20466;-67
2023/09/29 06:10:58;;;;;;;3.40;2.73;;;15.10;99.90;;;;;;4985923;28;20494;-67
2023/09/29 06:13:25;;;;;;;4.00;2.97;;;15.20;99.90;;;;;;4986833;28;20484;-70
2023/09/29 06:15:52;;;;;;;3.83;3.17;;;15.40;99.90;;;;;;4986706;28;20952;-69
2023/09/29 06:18:19;;;;;;;4.00;3.33;;;15.50;99.90;;;;;;4986217;28;20472;-69
2023/09/29 06:20:45;;;;;;;3.87;3.00;;;15.60;99.90;;;;;;4987961;28;20492;-68
2023/09/29 06:23:13;;;;;;;3.70;3.07;;;15.80;99.90;;;;;;4985308;28;20508;-69
2023/09/29 06:25:40;;;;;;;4.10;3.10;;;15.90;99.90;;;;;;4987900;28;20474;-65
2023/09/29 06:28:07;;;;;;;3.80;3.00;;;15.90;99.90;;;;;;4985215;28;20464;-64
2023/09/29 06:30:34;;;;;;;3.40;2.90;;;16.00;99.90;;;;;;4987803;28;20484;-64
2023/09/29 06:33:00;;;;;;;3.33;3.00;;;16.00;99.90;;;;;;4976762;28;20850;-68
2023/09/29 06:35:27;;;;;;;3.90;3.60;;;16.20;99.90;;;;;;4986594;28;20478;-65
2023/09/29 06:37:54;;;;;;;3.70;3.20;;;16.30;99.90;;;;;;4987157;28;20561;-66
2023/09/29 06:40:23;;;;;;;5.30;3.30;;;16.40;99.90;;;;;;4986513;28;20951;-65
2023/09/29 06:42:49;;;;;;;3.80;3.00;;;16.50;99.90;;;;;;4988103;28;20997;-65
2023/09/29 06:45:16;;;;;;;3.00;2.70;;;16.50;99.90;;;;;;4985530;28;20497;-65
2023/09/29 06:47:43;;;;;;;4.17;3.33;;;16.60;99.90;;;;;;4988260;28;20469;-65
2023/09/29 06:50:11;;;;;;;4.23;3.20;;;16.70;99.90;;;;;;4985844;28;20465;-65
2023/09/29 06:52:38;;;;;;;5.33;3.70;;;16.70;99.90;;;;;;4988276;28;20518;-65
2023/09/29 06:55:05;;;;;;;3.73;2.80;;;16.80;99.90;;;;;;4985899;28;20849;-66
2023/09/29 06:57:34;;;;;;;4.33;3.07;;;16.80;99.90;;;;;;4982226;28;20465;-67
2023/09/29 07:00:00;;;;;;;4.43;3.40;;;16.80;99.90;;;;;;4986952;28;20479;-67
2023/09/29 07:02:27;;;;;;;6.83;3.47;;;16.80;99.90;;;;;;4987812;28;20866;-67
2023/09/29 07:04:54;;;;;;;4.77;3.80;;;16.80;99.90;;;;;;4987707;28;20490;-67
2023/09/29 07:07:21;;;;;;;3.60;3.17;;;16.80;99.90;;;;;;4986703;28;20470;-68
2023/09/29 07:09:47;;;;;;;4.27;3.10;;;16.80;99.90;;;;;;4988445;28;20853;-67
2023/09/29 07:12:14;;;;;;;5.70;3.80;;;16.80;99.90;;;;;;4986316;28;20493;-67
2023/09/29 07:14:42;;;;;;;4.67;3.33;;;16.80;99.90;;;;;;4987975;28;20470;-68
2023/09/29 07:17:09;;;;;;;3.63;2.83;;;16.90;99.90;;;;;;4986510;28;20468;-66
2023/09/29 07:19:35;;;;;;;4.53;3.07;;;16.90;99.90;;;;;;4988563;28;20465;-66
2023/09/29 07:22:02;;;;;;;3.03;2.73;;;17.00;99.90;;;;;;4987220;28;20492;-66
2023/09/29 07:24:29;;;;;;;4.27;3.30;;;17.10;99.90;;;;;;4987871;28;20536;-64
2023/09/29 07:26:56;;;;;;;5.17;3.70;;;17.10;99.90;;;;;;4988337;28;20982;-64
2023/09/29 07:29:22;;;;;;;4.97;3.20;;;17.10;99.90;;;;;;4987307;28;20835;-64
2023/09/29 07:31:51;;;;;;;5.97;3.10;;;17.20;99.90;;;;;;4988576;28;20485;-65
2023/09/29 07:34:18;;;;;;;4.70;2.80;;;17.20;99.90;;;;;;4986236;28;20547;-64
2023/09/29 07:36:46;;;;;;;5.70;3.17;;;17.20;99.90;;;;;;4988779;28;20589;-64
2023/09/29 07:39:13;;;;;;;3.83;3.13;;;17.20;99.90;;;;;;4988707;28;20515;-64
2023/09/29 07:41:40;;;;;;;4.03;3.43;;;17.20;99.90;;;;;;5005614;28;21064;-68
2023/09/29 07:44:08;;;;;;;4.13;3.00;;;17.30;99.90;;;;;;4987913;28;21009;-67
2023/09/29 07:46:35;;;;;;;4.50;3.40;;;17.30;99.90;;;;;;4987906;28;20464;-67
2023/09/29 07:49:03;;;;;;;3.63;3.10;;;17.40;99.90;;;;;;4987836;28;20466;-67
2023/09/29 07:51:30;;;;;;;5.00;3.30;;;17.40;99.90;;;;;;4988770;28;20482;-65
2023/09/29 07:53:57;;;;;;;4.33;3.03;;;17.50;99.90;;;;;;4988688;28;20462;-64
2023/09/29 07:56:24;;;;;;;3.30;3.00;;;17.60;99.90;;;;;;4987792;28;20472;-64
2023/09/29 07:58:51;;;;;;;5.70;3.40;;;17.70;99.90;;;;;;4988982;28;20469;-64
2023/09/29 08:01:18;;;;;;;3.40;2.97;;;17.80;99.90;;;;;;4987646;28;20485;-67
2023/09/29 08:03:45;;;;;;;3.17;2.50;;;18.00;99.90;;;;;;4989303;28;20500;-65
2023/09/29 08:06:14;;;;;;;4.63;2.93;;;18.10;99.90;;;;;;4987522;28;20465;-67
2023/09/29 08:08:40;;;;;;;4.10;2.50;;;18.20;99.90;;;;;;4989540;28;20470;-64
2023/09/29 08:11:07;;;;;;;2.60;2.20;;;18.30;99.90;;;;;;4987690;28;20489;-63
2023/09/29 08:13:34;;;;;;;2.50;2.30;;;18.50;99.90;;;;;;4989382;28;20470;-64
2023/09/29 08:16:01;;;;;;;3.80;2.80;;;18.70;99.90;;;;;;4988662;28;20466;-67
2023/09/29 08:18:28;;;;;;;3.77;2.90;;;18.90;99.90;;;;;;4989192;28;20477;-67
2023/09/29 08:20:55;;;;;;;3.03;2.73;;;19.00;99.90;;;;;;4989610;28;20487;-67
2023/09/29 08:23:23;;;;;;;3.00;2.70;;;19.00;99.90;;;;;;4988361;28;20467;-68
2023/09/29 08:25:50;;;;;;;3.20;2.63;;;19.20;99.90;;;;;;4989991;28;21026;-64
2023/09/29 08:28:16;;;;;;;3.77;2.87;;;19.30;99.90;;;;;;4988315;28;20463;-64
2023/09/29 08:30:44;;;;;;;3.00;2.70;;;19.50;99.90;;;;;;4989723;28;20485;-65
2023/09/29 08:33:11;;;;;;;3.17;2.53;;;19.70;99.90;;;;;;4988518;28;20472;-65
2023/09/29 08:35:38;;;;;;;2.80;2.20;;;19.80;99.90;;;;;;4989489;28;20614;-67
2023/09/29 08:38:05;;;;;;;2.50;2.30;;;20.00;99.90;;;;;;4989474;28;20467;-68
2023/09/29 08:40:37;;;;;;;2.83;2.53;;;19.90;99.90;;;;;;4982547;28;20967;-66
2023/09/29 08:43:06;;;;;;;3.03;2.67;;;20.00;99.90;;;;;;4989307;28;20466;-69
2023/09/29 08:45:33;;;;;;;2.90;2.57;;;20.00;99.90;;;;;;4984041;28;20542;-68
2023/09/29 08:48:03;;;;;;;3.90;2.80;;;20.30;99.90;;;;;;4993493;28;20470;-66
2023/09/29 08:50:29;;;;;;;2.60;2.23;;;20.60;99.90;;;;;;5011511;28;20829;-68
2023/09/29 08:52:59;;;;;;;2.83;2.57;;;21.00;99.90;;;;;;5012210;28;20464;-65
2023/09/29 08:55:28;;;;;;;2.80;2.50;;;21.30;99.90;;;;;;5001135;28;20458;-65
2023/09/29 08:57:56;;;;;;;2.50;2.20;;;21.70;99.90;;;;;;4993574;28;20488;-65
2023/09/29 09:00:24;;;;;;;3.10;2.23;;;22.10;99.90;;;;;;4992857;28;20473;-64
2023/09/29 09:02:51;;;;;;;2.63;2.40;;;22.40;99.90;;;;;;4993590;28;20871;-64
2023/09/29 09:05:20;;;;;;;2.53;2.33;;;22.70;99.90;;;;;;4992492;28;21044;-64
2023/09/29 09:07:46;;;;;;;3.40;3.10;;;23.00;99.90;;;;;;4993711;28;20462;-64
2023/09/29 09:10:13;;;;;;;2.60;2.40;;;23.20;99.90;;;;;;4993099;28;20977;-67
2023/09/29 09:12:40;;;;;;;3.50;2.77;;;23.40;99.90;;;;;;4986306;28;20831;-69
2023/09/29 09:15:14;;;;;;;5.03;2.93;;;23.50;99.90;;;;;;4993092;28;20458;-68
2023/09/29 09:17:40;;;;;;;2.37;2.17;;;23.70;99.90;;;;;;4994003;28;20467;-68
2023/09/29 09:20:09;;;;;;;2.40;2.20;;;23.80;99.90;;;;;;4993511;28;20462;-64
2023/09/29 09:22:38;;;;;;;3.03;2.40;;;24.00;99.90;;;;;;4993742;28;20517;-64
2023/09/29 09:25:08;;;;;;;2.70;2.50;;;24.10;99.90;;;;;;4993268;28;20489;-65
2023/09/29 09:27:38;;;;;;;2.83;2.40;;;24.20;99.90;;;;;;4986381;28;20469;-66
2023/09/29 09:30:06;;;;;;;3.40;2.40;;;24.50;99.90;;;;;;4978194;28;20848;-65
2023/09/29 09:32:34;;;;;;;2.73;2.20;;;24.60;99.90;;;;;;4974058;28;20483;-65
2023/09/29 09:35:01;;;;;;;2.20;2.00;;;24.80;99.90;;;;;;4973845;28;20455;-65
2023/09/29 09:37:28;;;;;;;3.60;2.40;;;24.90;99.90;;;;;;4974357;28;20867;-65
2023/09/29 09:39:56;;;;;;;2.23;2.03;;;24.90;99.90;;;;;;4974629;28;20459;-65
2023/09/29 09:42:26;;;;;;;2.93;2.43;;;25.10;99.90;;;;;;4974291;28;20537;-65
2023/09/29 09:44:57;;;;;;;2.63;2.13;;;25.20;99.90;;;;;;4974082;28;20490;-65
2023/09/29 09:47:25;;;;;;;4.00;2.60;;;25.20;99.90;;;;;;4974428;28;20471;-64
2023/09/29 09:49:56;;;;;;;2.80;2.50;;;25.10;99.90;;;;;;4974662;28;20472;-65
2023/09/29 09:52:25;;;;;;;2.87;2.40;;;24.90;99.90;;;;;;4974368;28;20487;-65
2023/09/29 09:54:54;;;;;;;2.37;2.10;;;24.80;99.90;;;;;;4974130;28;20467;-65
2023/09/29 09:57:24;;;;;;;2.47;2.03;;;24.60;99.90;;;;;;4974668;28;20513;-64
2023/09/29 09:59:54;;;;;;;2.37;2.17;;;24.60;99.90;;;;;;4974546;28;20518;-64
2023/09/29 10:02:22;;;;;;;1.90;1.77;;;24.40;99.90;;;;;;4974811;28;20494;-65
2023/09/29 10:04:51;;;;;;;3.30;2.60;;;24.40;99.90;;;;;;4974169;28;20487;-65
2023/09/29 10:07:20;;;;;;;2.97;2.70;;;24.30;99.90;;;;;;4974866;28;20561;-64
2023/09/29 10:09:49;;;;;;;2.50;2.20;;;24.30;99.90;;;;;;4975011;28;20837;-65
2023/09/29 10:12:26;;;;;;;2.90;2.60;;;24.30;99.90;;;;;;4974844;28;20483;-65
2023/09/29 10:14:53;;;;;;;3.00;2.10;;;24.20;99.90;;;;;;4974272;28;20469;-65
2023/09/29 10:17:21;;;;;;;2.27;2.07;;;24.20;99.90;;;;;;4975047;28;20880;-65
2023/09/29 10:19:51;;;;;;;2.40;2.00;;;24.20;99.90;;;;;;4974774;28;20463;-64
2023/09/29 10:22:28;;;;;;;2.83;2.53;;;24.20;99.90;;;;;;4974868;28;20490;-65
2023/09/29 10:24:56;;;;;;;2.27;2.07;;;24.20;99.90;;;;;;4974494;28;20532;-65
2023/09/29 10:27:31;;;;;;;2.77;2.50;;;24.30;99.90;;;;;;4975155;28;20481;-65
2023/09/29 10:30:16;;;;;;;2.90;2.40;;;24.40;99.90;;;;;;4974883;28;20513;-65
2023/09/29 10:32:45;;;;;;;3.00;2.17;;;24.70;99.90;;;;;;4974905;28;20470;-65
2023/09/29 10:35:18;;;;;;;3.27;2.60;;;25.00;99.90;;;;;;4974953;28;20956;-69
2023/09/29 10:37:54;;;;;;;2.43;2.20;;;25.20;99.90;;;;;;4993898;28;20462;-69
2023/09/29 10:40:28;;;;;;;2.50;2.30;;;25.40;99.90;;;;;;4976645;28;20467;-68
2023/09/29 10:42:56;;;;;;;2.93;2.63;;;25.50;99.90;;;;;;4974919;28;20491;-68
2023/09/29 10:45:28;;;;;;;3.40;2.60;;;25.70;99.90;;;;;;4981978;28;21010;-68
2023/09/29 10:48:01;;;;;;;2.77;2.53;;;25.80;99.90;;;;;;4980573;28;20501;-66
2023/09/29 10:50:28;;;;;;;3.00;2.70;;;26.10;99.90;;;;;;4976077;28;20463;-65
2023/09/29 10:52:57;;;;;;;2.53;2.33;;;26.30;99.90;;;;;;4982973;28;20467;-66
2023/09/29 10:55:23;;;;;;;2.63;2.43;;;26.40;99.90;;;;;;4975322;28;20460;-66
2023/09/29 10:57:51;;;;;;;2.60;2.37;;;26.50;99.90;;;;;;4974971;28;20495;-65
2023/09/29 11:00:19;;;;;;;2.47;2.10;;;26.60;99.90;;;;;;4975740;28;20509;-68
2023/09/29 11:02:48;;;;;;;3.40;2.83;;;26.70;99.90;;;;;;4975313;28;20466;-68
2023/09/29 11:05:15;;;;;;;2.97;2.60;;;26.70;99.90;;;;;;4975947;28;20893;-67
2023/09/29 11:07:46;;;;;;;2.40;2.10;;;26.70;99.90;;;;;;4973815;28;20478;-64
2023/09/29 11:10:17;;;;;;;2.60;2.07;;;26.80;99.90;;;;;;4975383;28;20463;-65
2023/09/29 11:12:46;;;;;;;2.70;2.33;;;26.90;99.90;;;;;;4989071;28;20837;-66
2023/09/29 11:15:14;;;;;;;2.67;2.47;;;27.10;99.90;;;;;;4975518;28;20459;-65
2023/09/29 11:17:45;;;;;;;3.13;2.80;;;27.30;99.90;;;;;;4974656;28;20495;-65
2023/09/29 11:20:16;;;;;;;3.37;2.83;;;27.50;99.90;;;;;;4974785;28;20535;-65
2023/09/29 11:22:45;;;;;;;3.30;3.00;;;27.60;99.90;;;;;;4989790;28;20879;-65
2023/09/29 11:25:19;;;;;;;2.77;2.30;;;27.70;99.90;;;;;;4975333;28;20478;-66
2023/09/29 11:27:50;;;;;;;2.70;2.50;;;27.80;99.90;;;;;;4984357;28;20467;-65
2023/09/29 11:30:19;;;;;;;4.53;2.60;;;27.80;99.90;;;;;;4986204;28;20462;-66
2023/09/29 11:32:44;;;;;;;2.80;2.27;;;27.80;99.90;;;;;;4975261;28;20467;-65
2023/09/29 11:35:13;;;;;;;3.40;2.73;;;27.90;99.90;;;;;;4975479;28;20963;-66
2023/09/29 11:37:40;;;;;;;3.60;2.73;;;27.90;99.90;;;;;;4975667;28;20665;-65
2023/09/29 11:40:11;;;;;;;2.77;2.57;;;27.90;99.90;;;;;;4975337;28;20475;-65
2023/09/29 11:42:39;;;;;;;3.30;2.40;;;28.00;99.90;;;;;;4976113;28;20577;-65
2023/09/29 11:45:08;;;;;;;3.07;2.77;;;28.00;99.90;;;;;;4975134;28;20494;-64
2023/09/29 11:47:35;;;;;;;2.83;2.53;;;28.10;99.90;;;;;;4975507;28;20545;-66
2023/09/29 11:50:02;;;;;;;3.13;2.87;;;28.20;99.90;;;;;;4975672;28;20466;-66
2023/09/29 11:52:29;;;;;;;2.63;2.43;;;28.30;99.90;;;;;;4977258;28;21005;-65
2023/09/29 11:54:56;;;;;;;3.13;2.73;;;28.30;99.90;;;;;;4975292;28;20464;-66
2023/09/29 11:57:22;;;;;;;2.60;2.40;;;28.40;99.90;;;;;;4977257;28;20467;-68
2023/09/29 11:59:49;;;;;;;3.10;2.80;;;28.30;99.90;;;;;;4975721;28;21016;-68
2023/09/29 12:02:16;;;;;;;2.60;2.40;;;28.20;99.90;;;;;;4977284;28;20501;-68
2023/09/29 12:04:43;;;;;;;2.50;2.30;;;28.40;99.90;;;;;;4975295;28;20839;-66
2023/09/29 12:07:10;;;;;;;2.80;2.43;;;28.50;99.90;;;;;;4982421;28;20467;-67
2023/09/29 12:09:37;;;;;;;4.43;3.03;;;28.60;99.90;;;;;;4975303;28;20458;-66
2023/09/29 12:12:04;;;;;;;3.60;2.80;;;28.70;99.90;;;;;;4971860;28;20487;-66
2023/09/29 12:14:31;;;;;;;4.07;2.57;;;28.80;99.90;;;;;;4976089;28;20804;-66
2023/09/29 12:17:00;;;;;;;3.03;2.83;;;28.90;99.90;;;;;;4976040;28;20862;-66
2023/09/29 12:19:27;;;;;;;2.70;2.50;;;28.90;99.90;;;;;;4979908;28;20879;-66
2023/09/29 12:21:55;;;;;;;3.87;3.20;;;29.00;99.90;;;;;;4979774;28;20487;-66
2023/09/29 12:24:22;;;;;;;2.40;2.20;;;29.00;99.90;;;;;;4981333;28;20497;-66
2023/09/29 12:26:48;;;;;;;2.90;2.60;;;29.00;99.90;;;;;;4979959;28;20483;-66
2023/09/29 12:29:15;;;;;;;3.47;2.80;;;29.00;99.90;;;;;;4980986;28;20539;-66
2023/09/29 12:31:42;;;;;;;2.70;2.30;;;29.10;99.90;;;;;;4980663;28;20489;-66
2023/09/29 12:34:10;;;;;;;3.23;2.70;;;29.20;99.90;;;;;;4979863;28;20486;-66
2023/09/29 12:36:36;;;;;;;2.90;2.70;;;29.20;99.90;;;;;;4981834;28;20471;-66
2023/09/29 12:39:04;;;;;;;3.07;2.60;;;29.20;99.90;;;;;;4979977;28;20459;-66
2023/09/29 12:41:31;;;;;;;2.80;2.50;;;29.30;99.90;;;;;;4982396;28;20994;-65
2023/09/29 12:43:58;;;;;;;2.57;2.10;;;29.30;99.90;;;;;;4979549;28;20525;-67
2023/09/29 12:46:25;;;;;;;5.13;2.50;;;29.10;99.90;;;;;;4982168;28;20493;-66
2023/09/29 12:48:52;;;;;;;2.33;2.13;;;29.10;99.90;;;;;;4980136;28;20471;-66
2023/09/29 12:51:20;;;;;;;2.27;2.07;;;29.20;99.90;;;;;;4981690;28;20485;-66
2023/09/29 12:53:47;;;;;;;2.53;2.33;;;29.30;99.90;;;;;;4980612;28;20990;-66
2023/09/29 12:56:15;;;;;;;3.10;2.60;;;29.40;99.90;;;;;;4980691;28;20459;-66
2023/09/29 12:58:42;;;;;;;3.17;2.87;;;29.30;99.90;;;;;;4981126;28;20469;-66
2023/09/29 13:01:08;;;;;;;3.03;2.33;;;29.40;99.90;;;;;;4980263;28;20475;-66
2023/09/29 13:03:36;;;;;;;2.50;2.30;;;29.20;99.90;;;;;;4982383;28;20473;-66
2023/09/29 13:06:04;;;;;;;2.53;2.33;;;29.00;99.90;;;;;;4979809;28;20498;-66
2023/09/29 13:08:33;;;;;;;3.17;2.87;;;28.90;99.90;;;;;;4980860;28;20466;-66
2023/09/29 13:11:00;;;;;;;2.90;2.47;;;29.00;99.90;;;;;;4980253;28;20490;-66
2023/09/29 13:13:27;;;;;;;2.70;2.50;;;28.90;99.90;;;;;;4982896;28;20474;-66
2023/09/29 13:15:53;;;;;;;2.70;2.50;;;28.80;99.90;;;;;;4985229;28;20455;-66
2023/09/29 13:18:20;;;;;;;2.30;2.10;;;28.80;99.90;;;;;;4984109;28;20967;-66
2023/09/29 13:20:48;;;;;;;3.10;2.40;;;28.90;99.90;;;;;;4980985;28;20482;-65
2023/09/29 13:23:15;;;;;;;2.70;2.50;;;29.00;99.90;;;;;;4981520;28;20467;-67
2023/09/29 13:25:43;;;;;;;2.53;2.00;;;29.00;99.90;;;;;;4981503;28;20490;-71
2023/09/29 13:28:10;;;;;;;2.60;2.30;;;29.10;99.90;;;;;;4980598;28;20474;-69
2023/09/29 13:30:37;;;;;;;2.67;2.40;;;29.00;99.90;;;;;;4982047;28;20483;-70
2023/09/29 13:33:04;;;;;;;3.00;2.07;;;28.80;99.90;;;;;;4980341;28;20815;-70
2023/09/29 13:35:30;;;;;;;2.53;2.33;;;28.40;99.90;;;;;;4982995;28;20462;-68
2023/09/29 13:37:57;;;;;;;2.40;2.20;;;28.10;99.90;;;;;;4980408;28;20945;-69
2023/09/29 13:40:24;;;;;;;3.47;2.17;;;27.90;99.90;;;;;;4982699;28;20490;-69
2023/09/29 13:42:52;;;;;;;2.60;2.40;;;27.70;99.90;;;;;;4980935;28;20513;-69
2023/09/29 13:45:19;;;;;;;2.77;2.40;;;27.60;99.90;;;;;;4981766;28;20473;-69
2023/09/29 13:47:46;;;;;;;2.60;2.40;;;27.70;99.90;;;;;;4981864;28;20850;-69
2023/09/29 13:50:12;;;;;;;2.43;2.23;;;27.80;99.90;;;;;;4981169;28;20474;-69
2023/09/29 13:52:40;;;;;;;2.50;2.10;;;27.90;99.90;;;;;;4982942;28;20469;-69
2023/09/29 13:55:08;;;;;;;2.60;2.40;;;27.70;99.90;;;;;;4980089;28;20467;-69
2023/09/29 13:57:35;;;;;;;3.07;2.17;;;27.40;99.90;;;;;;4980585;28;20887;-69
2023/09/29 14:00:04;;;;;;;2.83;2.30;;;27.20;99.90;;;;;;4980609;28;20467;-69
2023/09/29 14:02:30;;;;;;;2.40;2.20;;;27.00;99.90;;;;;;4983947;28;20983;-69
2023/09/29 14:04:57;;;;;;;2.40;2.20;;;26.80;99.90;;;;;;4979996;28;20482;-68
2023/09/29 14:07:24;;;;;;;3.20;2.90;;;26.60;99.90;;;;;;4982839;28;20493;-67
2023/09/29 14:09:51;;;;;;;2.23;2.03;;;26.50;99.90;;;;;;4981395;28;20470;-67
2023/09/29 14:12:17;;;;;;;2.80;2.47;;;26.50;99.90;;;;;;4982054;28;20502;-66
2023/09/29 14:14:47;;;;;;;2.30;2.10;;;26.80;99.90;;;;;;4982094;28;20462;-66
2023/09/29 14:17:15;;;;;;;2.60;2.40;;;27.00;99.90;;;;;;4981599;28;20556;-66
2023/09/29 14:19:41;;;;;;;3.60;2.13;;;27.20;99.90;;;;;;4982883;28;20467;-66
2023/09/29 14:22:08;;;;;;;3.17;2.60;;;27.40;99.90;;;;;;4980583;28;20479;-66
2023/09/29 14:24:35;;;;;;;2.43;2.23;;;27.50;99.90;;;;;;4983734;28;20466;-65
2023/09/29 14:27:01;;;;;;;3.30;2.47;;;27.30;99.90;;;;;;4980735;28;21030;-69
2023/09/29 14:29:28;;;;;;;3.17;2.30;;;27.00;99.90;;;;;;4983911;28;20474;-69
2023/09/29 14:31:55;;;;;;;2.60;2.40;;;26.70;99.90;;;;;;4981002;28;20493;-65
2023/09/29 14:34:23;;;;;;;3.03;2.30;;;26.50;99.90;;;;;;4982510;28;20502;-69
2023/09/29 14:36:50;;;;;;;2.57;2.37;;;26.30;99.90;;;;;;4982032;28;20469;-65
2023/09/29 14:39:17;;;;;;;2.90;2.30;;;26.10;99.90;;;;;;4982076;28;20455;-65
2023/09/29 14:41:45;;;;;;;2.43;2.23;;;26.00;99.90;;;;;;4982605;28;20938;-65
2023/09/29 14:44:12;;;;;;;2.90;2.30;;;25.90;99.90;;;;;;4980486;28;20668;-65
2023/09/29 14:46:38;;;;;;;3.00;2.70;;;25.70;99.90;;;;;;4983861;28;20490;-65
2023/09/29 14:49:05;;;;;;;2.53;2.33;;;25.60;99.90;;;;;;4980758;28;20474;-65
2023/09/29 14:51:33;;;;;;;2.43;2.10;;;25.50;99.90;;;;;;4984211;28;20884;-65
2023/09/29 14:54:00;;;;;;;2.97;2.67;;;25.40;99.90;;;;;;4980700;28;20463;-65
2023/09/29 14:56:27;;;;;;;2.93;2.63;;;25.30;99.90;;;;;;4983435;28;20473;-65
2023/09/29 14:58:54;;;;;;;3.37;2.90;;;25.10;99.90;;;;;;4981820;28;20484;-65
2023/09/29 15:01:20;;;;;;;2.60;2.27;;;25.00;99.90;;;;;;4982680;28;20566;-65
2023/09/29 15:03:48;;;;;;;3.37;2.70;;;24.80;99.90;;;;;;4982765;28;20466;-65
2023/09/29 15:06:15;;;;;;;3.40;2.63;;;24.60;99.90;;;;;;4981637;28;20479;-64
2023/09/29 15:08:43;;;;;;;2.70;2.23;;;24.40;99.90;;;;;;4983640;28;20462;-65
2023/09/29 15:11:10;;;;;;;3.00;2.80;;;24.20;99.90;;;;;;4981289;28;20501;-65
2023/09/29 15:13:39;;;;;;;2.87;2.50;;;24.20;99.90;;;;;;4984298;28;20473;-65
2023/09/29 15:16:11;;;;;;;3.13;2.63;;;24.00;99.90;;;;;;4996430;28;20490;-65
2023/09/29 15:18:38;;;;;;;2.37;2.17;;;23.90;99.90;;;;;;4980840;28;20497;-65
2023/09/29 15:21:04;;;;;;;4.80;2.70;;;23.70;99.90;;;;;;4980827;28;20486;-65
2023/09/29 15:23:34;;;;;;;3.00;2.50;;;23.60;99.90;;;;;;4984428;28;20473;-65
2023/09/29 15:26:02;;;;;;;3.27;2.53;;;23.50;99.90;;;;;;4980901;28;21063;-65
2023/09/29 15:28:29;;;;;;;3.87;2.53;;;23.40;99.90;;;;;;4983674;28;20462;-65
2023/09/29 15:30:56;;;;;;;2.90;2.63;;;23.30;99.90;;;;;;4984505;28;20482;-65
2023/09/29 15:33:23;;;;;;;3.77;3.00;;;23.20;99.90;;;;;;4983115;28;20976;-64
2023/09/29 15:35:51;;;;;;;3.63;3.13;;;23.10;99.90;;;;;;4983056;28;20462;-65
2023/09/29 15:38:18;;;;;;;2.97;2.50;;;23.10;99.90;;;;;;4982732;28;20495;-65
2023/09/29 15:40:45;;;;;;;3.80;2.60;;;23.10;99.90;;;;;;4984243;28;20490;-65
2023/09/29 15:43:13;;;;;;;4.17;3.43;;;23.00;99.90;;;;;;4981826;28;20840;-65
2023/09/29 15:45:41;;;;;;;3.57;3.10;;;22.90;99.90;;;;;;4984362;28;20462;-65
2023/09/29 15:48:08;;;;;;;4.40;3.20;;;22.70;99.90;;;;;;4997381;28;20924;-65
2023/09/29 15:50:34;;;;;;;4.27;3.30;;;22.60;99.90;;;;;;4984863;28;20482;-65
2023/09/29 15:53:03;;;;;;;4.13;3.03;;;22.50;99.90;;;;;;4982089;28;20823;-65
2023/09/29 15:55:30;;;;;;;4.00;3.10;;;22.50;99.90;;;;;;4988133;28;20464;-65
2023/09/29 15:57:57;;;;;;;5.53;3.10;;;22.40;99.90;;;;;;4987049;28;20470;-65
2023/09/29 16:00:25;;;;;;;3.80;2.77;;;22.30;99.90;;;;;;4987718;28;20866;-65
2023/09/29 16:02:51;;;;;;;4.73;3.23;;;22.20;99.90;;;;;;4987773;28;20477;-65
2023/09/29 16:05:18;;;;;;;4.73;3.17;;;22.20;99.90;;;;;;4987082;28;20467;-65
2023/09/29 16:07:45;;;;;;;5.17;2.90;;;22.10;99.90;;;;;;4988758;28;20494;-65
2023/09/29 16:10:15;;;;;;;5.73;3.80;;;22.10;99.90;;;;;;4986321;28;20474;-66
2023/09/29 16:12:42;;;;;;;5.50;2.80;;;22.10;99.90;;;;;;4989166;28;20570;-65
2023/09/29 16:15:09;;;;;;;7.40;3.60;;;22.00;99.90;;;;;;4985356;28;20471;-65
2023/09/29 16:17:37;;;;;;;6.30;3.90;;;21.90;99.90;;;;;;4989317;28;20461;-65
2023/09/29 16:20:05;;;;;;;8.83;4.33;;;21.90;99.90;;;;;;4986444;28;20473;-65